Südanflug-Wetter

Südanflüge sind sowohl am Euroairport Basel-Mulhouse-Freiburg als auch am Flughafen Unique Zürich ein Thema für die Anwohner. In Basel hängen Südanflüge von den Windverhältnissen ab. Für den Euroairport Basel-Mulhouse-Freiburg bereitet MeteoNews deshalb aktuelle Winddaten auf, die direkt auf der Homepage des Flughafens eingebunden werden. Angaben zum Flughafen Zürich finden Sie hier.

In Zürich sind Südanflüge auf die Piste 34 möglich, wenn die horizontale Sichtweite mindestens 750 m beträgt und die Wolkenuntergrenze im Anflugsektor nicht tiefer als 300 Fuss (knapp 100 m) liegt (diese Werte gelten seit dem 1. November 2004).

Prognose für Südanflüge

Am Mittwochmorgen sind Südanflüge aufgrund Nebelfelder möglicherweise nur eingeschränkt durchführbar.
(Prognose ohne Gewähr. Die Vorhersage wird mehrmals täglich aktualisiert. Verantwortlicher Meteorologe: Stefan Scherrer, 15.01.2019 15:59)

Analyse der letzten METAR-Messungen

Unser Tool wertet die letzten 20 offiziellen Wettermeldungen (METAR) des Flughafens Zürich aus und entscheidet aufgrund der beiden Werte für Sichtweite und Ceiling (Hauptwolkenuntergrenze), ob Südanflüge nach obiger Definition möglich wären. Allerdings repräsentiert der Wert für die Wolkenuntergrenze in der METAR-Meldung nicht die Bewölkung im Anflugsektor sondern generell um den Flughafen. Da über die Bewölkung im Anflugsektor kurzfristig aufgrund von Beobachtungen des Towers und von Piloten entschieden wird, kann die Angabe unseres Tools in gewissen Fällen von den realen Entscheiden der Flugsicherung abweichen.

Südanflüge Datum Uhrzeit Sichtweite Ceiling Vollständige METAR-Meldung
möglich 2019-01-16 04:20:00 > 10 km LSZH 160320Z VRB01KT 9999 MIFG NSC M04/M04 Q1019 NOSIG
möglich 2019-01-16 03:50:00 > 10 km LSZH 160250Z VRB01KT 9999 MIFG NSC M03/M04 Q1019 NOSIG
möglich 2019-01-16 03:20:00 > 10 km LSZH 160220Z 19002KT 9999 MIFG NSC M04/M04 Q1019 NOSIG
möglich 2019-01-16 02:50:00 > 10 km LSZH 160150Z 14002KT 9999 MIFG NSC M03/M04 Q1020 NOSIG
möglich 2019-01-16 02:20:00 > 10 km LSZH 160120Z 16003KT 9999 MIFG NSC M02/M03 Q1020 NOSIG
möglich 2019-01-16 01:50:00 > 10 km LSZH 160050Z 18001KT 9999 MIFG NSC M02/M03 Q1020 NOSIG
möglich 2019-01-16 00:50:00 > 10 km LSZH 152350Z 14003KT CAVOK M01/M02 Q1020 NOSIG
möglich 2019-01-16 00:20:00 > 10 km LSZH 152320Z 15003KT CAVOK M01/M03 Q1021 NOSIG
möglich 2019-01-15 23:50:00 > 10 km LSZH 152250Z 15003KT 9999 MIFG NSC M01/M03 Q1021 NOSIG
möglich 2019-01-15 23:20:00 > 10 km LSZH 152220Z VRB02KT CAVOK M01/M02 Q1021 NOSIG
möglich 2019-01-15 22:50:00 > 10 km LSZH 152150Z 16004KT CAVOK M01/M02 Q1021 NOSIG
möglich 2019-01-15 22:20:00 > 10 km LSZH 152120Z 15005KT CAVOK M01/M02 Q1021 NOSIG
möglich 2019-01-15 21:50:00 > 10 km LSZH 152050Z 15003KT CAVOK M00/M02 Q1022 NOSIG
möglich 2019-01-15 21:20:00 > 10 km LSZH 152020Z 13003KT CAVOK M00/M01 Q1022 NOSIG
möglich 2019-01-15 20:50:00 > 10 km LSZH 151950Z 14003KT CAVOK M00/M01 Q1022 NOSIG
möglich 2019-01-15 20:20:00 > 10 km LSZH 151920Z 13002KT CAVOK 00/M01 Q1022 NOSIG
möglich 2019-01-15 19:50:00 > 10 km LSZH 151850Z 13002KT CAVOK 00/M01 Q1022 NOSIG
möglich 2019-01-15 19:20:00 > 10 km LSZH 151820Z 16002KT CAVOK 00/M01 Q1022 NOSIG
möglich 2019-01-15 18:50:00 > 10 km LSZH 151750Z VRB02KT CAVOK 02/M01 Q1022 NOSIG
möglich 2019-01-15 18:20:00 > 10 km LSZH 151720Z VRB01KT CAVOK 02/00 Q1022 NOSIG